EDT,Max TemperatureF,Mean TemperatureF,Min TemperatureF,Max Dew PointF,MeanDew PointF,Min DewpointF,Max Humidity, Mean Humidity, Min Humidity, Max Sea Level PressureIn, Mean Sea Level PressureIn, Min Sea Level PressureIn, Max VisibilityMiles, Mean VisibilityMiles, Min VisibilityMiles, Max Wind SpeedMPH, Mean Wind SpeedMPH, Max Gust SpeedMPH,PrecipitationIn, CloudCover, Events, WindDirDegrees
2013-8-1,81,70,60,65,61,55,100,84,42,29.96,29.90,29.85,10,6,2,12,4,23,0.08,6,Rain,233
2013-8-2,77,65,53,59,54,49,100,79,43,29.99,29.95,29.91,10,6,0,18,3,22,0.02,3,Fog-Rain,227
2013-8-3,78,68,57,64,59,49,100,84,42,30.00,29.95,29.91,10,7,2,12,6,18,0.37,6,Rain,236
2013-8-4,75,62,52,53,50,48,96,68,41,30.09,30.03,29.99,10,10,10,14,5,23,0.00,3,,321
2013-8-5,73,60,48,54,50,45,100,77,41,30.15,30.11,30.06,10,8,0,6,1,,0.01,3,Fog,285
2013-8-6,80,64,48,59,52,46,97,77,42,30.08,30.06,30.04,10,9,2,8,4,,0.00,3,,43
2013-8-7,77,68,60,68,63,59,100,92,76,30.07,30.04,30.00,10,7,0,9,3,,0.10,6,Fog-Rain-Thunderstorm,117
2013-8-8,84,70,59,73,67,59,100,94,69,30.04,30.01,29.96,10,6,0,7,2,,0.05,6,Fog-Rain,343
2013-8-9,80,74,66,73,70,61,100,96,69,30.01,29.93,29.89,10,4,0,13,3,20,0.31,7,Fog-Rain,238
2013-8-10,80,69,59,62,59,54,100,76,48,30.12,30.08,30.03,10,10,8,13,4,20,0.00,2,,308
2013-8-11,80,68,57,64,58,55,97,78,50,30.17,30.11,30.06,10,10,10,6,2,,0.00,5,Rain,342
2013-8-12,79,66,54,65,60,54,100,82,50,30.09,30.03,29.92,10,10,5,10,4,20,0.00,2,,321
2013-8-13,77,67,54,66,61,47,100,89,54,29.95,29.85,29.80,10,7,0,13,4,24,0.49,5,Fog-Rain-Thunderstorm,300
2013-8-14,70,59,48,52,49,46,93,74,47,30.16,30.04,29.94,10,10,10,17,8,24,0.00,4,,298
2013-8-15,71,58,44,54,47,43,100,82,38,30.24,30.19,30.13,10,8,0,9,3,,0.00,3,Fog,245
2013-8-16,75,60,44,56,50,45,100,84,41,30.22,30.19,30.17,10,6,0,8,3,,0.01,2,Fog,30
2013-8-17,77,62,48,59,53,49,100,77,42,30.32,30.28,30.24,10,10,9,7,4,,0.00,1,,20
2013-8-18,72,62,55,59,57,55,97,82,63,30.29,30.24,30.19,10,10,10,7,4,,0.00,4,,26
2013-8-19,77,66,57,66,61,58,100,94,66,30.19,30.15,30.08,10,5,0,6,1,,0.32,7,Fog-Rain,4
2013-8-20,81,70,59,64,61,57,100,86,45,30.24,30.18,30.12,10,5,0,9,3,,0.01,2,Fog,233
2013-8-21,84,68,55,67,60,55,100,85,44,30.26,30.19,30.09,10,5,0,7,0,,0.01,1,Fog,261
2013-8-22,82,73,64,70,66,64,100,90,54,30.12,30.05,29.96,10,6,0,13,4,17,0.77,5,Fog-Rain-Thunderstorm,226
2013-8-23,79,70,57,66,61,52,100,91,42,30.20,30.07,30.01,10,4,0,8,2,,0.02,4,Fog-Rain,5
2013-8-24,78,63,48,57,52,42,100,78,28,30.36,30.31,30.22,10,8,0,8,3,,0.01,1,Fog,23
2013-8-25,81,64,48,59,54,48,100,74,40,30.42,30.34,30.26,10,10,10,10,4,20,0.00,1,,261
2013-8-26,84,71,60,66,62,59,100,77,52,30.25,30.14,30.01,10,10,7,15,7,23,0.02,2,Rain,223
2013-8-27,84,75,66,72,69,66,100,85,58,30.02,29.98,29.91,10,9,4,12,4,,0.00,5,Rain-Thunderstorm,239
2013-8-28,80,74,68,72,70,68,100,95,71,29.95,29.91,29.85,10,5,0,9,4,,0.08,7,Fog-Rain,208
2013-8-29,86,74,64,68,66,62,100,91,47,30.08,30.01,29.94,10,5,0,6,2,,0.01,4,Fog,13
2013-8-30,87,72,57,68,63,57,100,86,44,30.06,29.99,29.86,10,6,0,12,3,17,0.01,2,Fog,246
2013-8-31,86,74,64,70,68,64,100,87,58,29.90,29.85,29.78,10,8,2,13,5,18,0.08,2,Rain-Thunderstorm,203